createdAt,value
2019-06-01T00:02:00.111Z,11.8
2019-06-01T00:06:56.389Z,11.8
2019-06-01T00:11:53.278Z,11.8
2019-06-01T00:16:50.490Z,11.8
2019-06-01T00:21:47.428Z,11.8
2019-06-01T00:26:44.081Z,11.7
2019-06-01T00:31:41.169Z,11.7
2019-06-01T00:36:37.465Z,11.8
2019-06-01T00:41:34.396Z,11.8
2019-06-01T00:46:31.249Z,11.7
2019-06-01T00:51:28.176Z,11.8
2019-06-01T00:56:24.914Z,11.7
2019-06-01T01:01:21.636Z,11.6
2019-06-01T01:06:18.464Z,11.5
2019-06-01T01:11:15.201Z,11.4
2019-06-01T01:16:12.047Z,11.5
2019-06-01T01:21:08.393Z,11.4
2019-06-01T01:26:05.231Z,11.4
2019-06-01T01:31:12.677Z,11.4
2019-06-01T01:35:58.858Z,11.4
2019-06-01T01:40:56.230Z,11.4
2019-06-01T01:45:52.770Z,11.4
2019-06-01T01:50:50.213Z,11.4
2019-06-01T01:55:46.058Z,11.4
2019-06-01T02:00:42.927Z,11.3
2019-06-01T02:05:39.656Z,11.4
2019-06-01T02:10:36.585Z,11.3
2019-06-01T02:15:33.858Z,11.3
2019-06-01T02:20:30.790Z,11.2
2019-06-01T02:25:27.657Z,11.2
2019-06-01T02:30:24.390Z,11.2
2019-06-01T02:35:21.023Z,11.3
2019-06-01T02:40:17.573Z,11.3
2019-06-01T02:45:14.264Z,11.2
2019-06-01T02:50:11.231Z,11.1
2019-06-01T02:55:07.557Z,11.1
2019-06-01T03:00:04.904Z,11
2019-06-01T03:05:01.407Z,11.1
2019-06-01T03:09:58.736Z,11.1
2019-06-01T03:14:55.236Z,11.1
2019-06-01T03:19:52.067Z,11.3
2019-06-01T03:24:48.933Z,11.6
2019-06-01T03:29:49.385Z,11.8
2019-06-01T03:34:45.829Z,11.8
2019-06-01T03:39:43.015Z,11.4
2019-06-01T03:44:39.901Z,11.3
2019-06-01T03:49:36.404Z,11.2
2019-06-01T03:54:32.970Z,11.3
2019-06-01T03:59:29.878Z,11.8
2019-06-01T04:04:26.889Z,12.3
2019-06-01T04:09:23.862Z,12.5
2019-06-01T04:14:21.062Z,12.8
2019-06-01T04:19:18.406Z,13
2019-06-01T04:24:15.615Z,14
2019-06-01T04:29:12.839Z,16.4
2019-06-01T04:34:11.081Z,20
2019-06-01T04:39:09.436Z,21.7
2019-06-01T04:44:07.826Z,22.3
2019-06-01T04:49:06.434Z,22.6
2019-06-01T04:54:02.995Z,22.9
2019-06-01T04:59:01.151Z,24
2019-06-01T05:03:59.206Z,24
2019-06-01T05:08:57.121Z,24.6
2019-06-01T05:13:54.830Z,24.7
2019-06-01T05:18:52.533Z,25.1
2019-06-01T05:23:50.418Z,25.4
2019-06-01T05:28:48.310Z,26.1
2019-06-01T05:33:46.098Z,25.7
2019-06-01T05:38:46.929Z,26
2019-06-01T05:43:48.692Z,26.5
2019-06-01T05:53:51.791Z,24.6
2019-06-01T05:58:50.921Z,26.5
2019-06-01T06:03:50.102Z,27.1
2019-06-01T06:08:49.984Z,28.5
2019-06-01T06:13:52.752Z,29
2019-06-01T06:18:53.995Z,28.7
2019-06-01T06:23:53.598Z,27.5
2019-06-01T06:28:56.936Z,26.7
2019-06-01T06:33:56.809Z,29.8
2019-06-01T06:38:55.383Z,23.5
2019-06-01T06:48:54.403Z,29.5
2019-06-01T06:53:53.824Z,29.4
2019-06-01T06:58:54.036Z,30
2019-06-01T07:03:52.551Z,23.8
2019-06-01T07:08:51.840Z,21.7
2019-06-01T07:13:48.701Z,27.3
2019-06-01T07:18:48.522Z,22.9
2019-06-01T07:23:46.326Z,28.1
2019-06-01T07:28:46.675Z,30.4
2019-06-01T07:33:47.770Z,30.8
2019-06-01T07:38:48.229Z,31.6
2019-06-01T07:43:48.335Z,32.2
2019-06-01T07:48:51.631Z,27
2019-06-01T07:53:50.148Z,25.4
2019-06-01T08:03:56.875Z,30.4
2019-06-01T08:08:56.921Z,30.2
2019-06-01T08:13:57.978Z,26.4
2019-06-01T08:18:58.246Z,25.6
2019-06-01T08:23:57.971Z,27.2
2019-06-01T08:28:57.767Z,29
2019-06-01T08:33:57.562Z,26.8
2019-06-01T08:38:58.652Z,25.4
2019-06-01T08:43:57.311Z,28
2019-06-01T08:48:56.547Z,26.3
2019-06-01T08:53:58.313Z,26.4
2019-06-01T08:58:59.334Z,29.4
2019-06-01T09:03:59.303Z,26.8
2019-06-01T09:08:58.278Z,26.5
2019-06-01T09:13:58.534Z,30.6
2019-06-01T09:18:58.507Z,25
2019-06-01T09:23:55.485Z,24.1
2019-06-01T09:28:55.055Z,24.7
2019-06-01T09:33:55.159Z,27.6
2019-06-01T09:38:54.955Z,27.6
2019-06-01T09:43:55.262Z,27.9
2019-06-01T09:48:55.444Z,27
2019-06-01T09:53:53.941Z,24.3
2019-06-01T09:58:55.455Z,28.2
2019-06-01T10:03:54.786Z,29.7
2019-06-01T10:08:58.640Z,29.6
2019-06-01T10:14:00.663Z,33
2019-06-01T10:19:01.709Z,28.3
2019-06-01T10:23:59.793Z,24.8
2019-06-01T10:28:58.675Z,25
2019-06-01T10:34:00.487Z,27.2
2019-06-01T10:39:01.517Z,32.2
2019-06-01T10:44:03.160Z,30.9
2019-06-01T10:49:03.107Z,31.9
2019-06-01T10:54:05.845Z,25
2019-06-01T10:59:04.214Z,25
2019-06-01T11:04:02.292Z,24.9
2019-06-01T11:09:01.059Z,25.9
2019-06-01T11:13:59.881Z,26.5
2019-06-01T11:19:05.480Z,25.8
2019-06-01T11:24:07.425Z,25.7
2019-06-01T11:29:05.602Z,31.4
2019-06-01T11:34:03.658Z,25
2019-06-01T11:39:00.929Z,32.4
2019-06-01T11:43:59.602Z,33.4
2019-06-01T11:48:58.851Z,34.2
2019-06-01T11:53:56.536Z,26.5
2019-06-01T11:58:52.720Z,32.2
2019-06-01T12:03:50.370Z,28.2
2019-06-01T12:08:47.089Z,28.5
2019-06-01T12:13:44.403Z,30.2
2019-06-01T12:18:42.610Z,26.1
2019-06-01T12:23:38.953Z,29.4
2019-06-01T12:28:35.381Z,27.1
2019-06-01T12:33:32.285Z,26.1
2019-06-01T12:38:29.226Z,25.1
2019-06-01T12:43:25.634Z,24.7
2019-06-01T12:48:22.339Z,23.9
2019-06-01T12:53:18.242Z,23.4
2019-06-01T12:58:15.112Z,23.4
2019-06-01T13:03:11.794Z,23.5
2019-06-01T13:08:08.550Z,28.2
2019-06-01T13:13:06.896Z,29.6
2019-06-01T13:18:05.280Z,27.5
2019-06-01T13:23:02.872Z,26.5
2019-06-01T13:27:59.949Z,25.9
2019-06-01T13:32:57.360Z,25.6
2019-06-01T13:38:10.434Z,25
2019-06-01T13:42:51.558Z,24.3
2019-06-01T13:47:49.825Z,23.9
2019-06-01T13:52:45.863Z,23.4
2019-06-01T13:57:42.172Z,22.7
2019-06-01T14:02:39.667Z,22.3
2019-06-01T14:07:37.013Z,22.1
2019-06-01T14:12:33.697Z,21.9
2019-06-01T14:17:30.531Z,21.4
2019-06-01T14:22:28.077Z,20.9
2019-06-01T14:27:25.037Z,20.8
2019-06-01T14:32:22.884Z,21
2019-06-01T14:37:20.121Z,22.3
2019-06-01T14:42:17.237Z,22.9
2019-06-01T14:47:18.480Z,23.1
2019-06-01T14:52:12.154Z,26.7
2019-06-01T14:57:10.658Z,24.6
2019-06-01T15:02:07.401Z,22.6
2019-06-01T15:07:03.976Z,21.2
2019-06-01T15:12:01.136Z,20.9
2019-06-01T15:16:57.994Z,20.6
2019-06-01T15:21:56.180Z,20.9
2019-06-01T15:26:52.565Z,21.1
2019-06-01T15:31:50.984Z,21.1
2019-06-01T15:36:47.141Z,20.9
2019-06-01T15:41:44.445Z,21
2019-06-01T15:46:41.336Z,21
2019-06-01T15:51:38.335Z,21.9
2019-06-01T15:56:35.849Z,22.4
2019-06-01T16:01:33.518Z,22.6
2019-06-01T16:06:31.965Z,22.6
2019-06-01T16:11:29.307Z,22.8
2019-06-01T16:16:27.035Z,22.4
2019-06-01T16:21:24.688Z,21.5
2019-06-01T16:26:22.455Z,20.7
2019-06-01T16:31:19.083Z,19.9
2019-06-01T16:36:16.116Z,18.9
2019-06-01T16:41:12.744Z,18.1
2019-06-01T16:46:09.381Z,17.5
2019-06-01T16:51:05.951Z,17
2019-06-01T16:56:03.974Z,16.2
2019-06-01T17:01:00.435Z,16.2
2019-06-01T17:05:56.806Z,15.9
2019-06-01T17:10:54.013Z,15.6
2019-06-01T17:15:51.035Z,15.6
2019-06-01T17:20:47.800Z,15.1
2019-06-01T17:25:45.012Z,14.7
2019-06-01T17:30:42.792Z,14.5
2019-06-01T17:35:39.406Z,14.9
2019-06-01T17:40:38.622Z,14.6
2019-06-01T17:45:34.414Z,14.3
2019-06-01T17:50:31.361Z,14.2
2019-06-01T17:55:28.448Z,14.4
2019-06-01T18:00:25.205Z,14.4
2019-06-01T18:05:22.103Z,14.6
2019-06-01T18:10:18.986Z,14.5
2019-06-01T18:15:15.832Z,14.6
2019-06-01T18:20:13.072Z,14.7
2019-06-01T18:25:10.471Z,14.7
2019-06-01T18:30:08.761Z,14.4
2019-06-01T18:35:06.987Z,14.3
2019-06-01T18:40:03.875Z,14
2019-06-01T18:45:00.039Z,13.8
2019-06-01T18:49:56.811Z,13.6
2019-06-01T18:54:54.020Z,13.4
2019-06-01T18:59:50.671Z,13.2
2019-06-01T19:04:47.538Z,13
2019-06-01T19:09:44.296Z,12.8
2019-06-01T19:14:41.487Z,12.8
2019-06-01T19:19:38.666Z,12.9
2019-06-01T19:24:35.318Z,12.7
2019-06-01T19:29:32.161Z,12.6
2019-06-01T19:34:29.410Z,12.5
2019-06-01T19:39:26.159Z,12.4
2019-06-01T19:44:23.532Z,12.4
2019-06-01T19:49:20.591Z,12.6
2019-06-01T19:54:18.936Z,12.5
2019-06-01T19:59:16.038Z,12.7
2019-06-01T20:04:12.517Z,12.4
2019-06-01T20:09:10.907Z,12.4
2019-06-01T20:14:06.748Z,12.6
2019-06-01T20:19:03.834Z,12.9
2019-06-01T20:24:01.271Z,13
2019-06-01T20:28:58.648Z,12.8
2019-06-01T20:33:56.497Z,12.7
2019-06-01T20:38:53.312Z,12.7
2019-06-01T20:43:50.281Z,12.6
2019-06-01T20:48:47.726Z,12.5
2019-06-01T20:53:44.543Z,12.4
2019-06-01T20:58:41.959Z,12.1
2019-06-01T21:03:38.816Z,11.9
2019-06-01T21:08:36.367Z,11.9
2019-06-01T21:13:33.543Z,11.9
2019-06-01T21:18:31.524Z,11.8
2019-06-01T21:23:28.591Z,11.9
2019-06-01T21:28:25.918Z,11.7
2019-06-01T21:33:25.234Z,12
2019-06-01T21:38:19.804Z,11.7
2019-06-01T21:43:24.868Z,11.6
2019-06-01T21:48:15.580Z,11.6
2019-06-01T21:53:11.320Z,11.6
2019-06-01T21:58:08.378Z,11.9
2019-06-01T22:03:05.797Z,12
2019-06-01T22:08:02.675Z,12
2019-06-01T22:13:15.245Z,12
2019-06-01T22:17:57.246Z,11.9
2019-06-01T22:22:55.012Z,11.8
2019-06-01T22:27:52.007Z,11.7
2019-06-01T22:32:48.921Z,11.6
2019-06-01T22:37:46.323Z,11.5
2019-06-01T22:42:43.254Z,11.3
2019-06-01T22:47:40.588Z,11
2019-06-01T22:52:37.428Z,10.9
2019-06-01T22:57:34.346Z,10.9
2019-06-01T23:02:32.049Z,10.8
2019-06-01T23:07:29.254Z,10.9
2019-06-01T23:12:25.917Z,11
2019-06-01T23:17:23.771Z,11
2019-06-01T23:22:21.638Z,11
2019-06-01T23:27:17.440Z,11.1
2019-06-01T23:32:14.782Z,10.9
2019-06-01T23:37:11.857Z,11
2019-06-01T23:42:08.953Z,10.9
2019-06-01T23:47:06.304Z,10.9
2019-06-01T23:52:03.169Z,11
2019-06-01T23:57:00.731Z,10.9
